Accueil
METAR-TAF:

METAR-TAF

Aéroports :

Aéroport international de Tuzla

Tuzla, Bosnie-Herzégovine

latitude: 44-33N, longitude: 018-42E, altitude: 306 m

Observation

Le bulletin a été fait il y a 19 minutes, à 17:00 UTC
Vent 7 kt de est
Température 9°C
Humidité 57%
Pression 1009 hPa
Visibilité 10 km ou plus
Quelques nuages à une hauteur de 3500 ft

METAR: LQTZ 051700Z 10007KT 9999 FEW035 09/01 Q1009

Heure: 18:19 (17:19 UTC)

Prévision

Le bulletin a été fait il y a 6 heures et 19 minutes, à 11:00 UTC
Prévision valable du 05 à 12 UTC au 06 à 12 UTC
Vent 5 kt de sud/sud-est
Visibilité 10 km ou plus
Nuages épars à une hauteur de 3500 ft
Temporairement
du 05 à 12 UTC au 05 à 17 UTC
Vent 10 kt de est
Probabilité 40% :
Temporairement
du 06 à 09 UTC au 06 à 12 UTC
Vent 12 kt de est

TAF: LQTZ 051100Z 0512/0612 15005KT 9999 SCT035 TX18/0513Z TN03/0606Z TEMPO 0512/0517 09010KT PROB40 TEMPO 0609/0612 09012KT

Observations et prévisions météorologiques de plus de 4000 aéroports (messages METAR et TAF).

Les stations disponibles sont représentées par des disques jaunes et rouges sur la carte.

Passer la souris dessus pour voir le nom de la station.

Cliquer dessus pour voir les observations et prévisions météorologiques.

Pour changer de carte: cliquez sur les boutons verts avec une croix noire pour zoomer, sur le bouton vert avec un tiret pour effectuer un zoom arrière, ou sur les flèches vertes pour les cartes adjacentes.


METAR-TAF: